Alamo, Indiana
Current Conditions -  °F | °C
As of 11:55 AM on Sunday 23 Nov 2014 (Local Time) from K4I7 Reporting Station
Haze Haze  
Wind Chill: 50°   Ceiling: 1700
Heat Index: 50°   Visibility: 2mi
Dew Point: 46°   Wind: 14mph
Humidity: 87%   Direction: 160°SSE
Pressure: 29.77"   Gusts: NA
Location:  39.98°N, 87.06°W
Report Text: K4I7 231655Z AUTO 16012KT 2SM BR OVC017 10/08 A2977 RMK AO2 P0001
Loading
Personal Weather Stations






























Interactive Weather Map New forecast layout! Learn more

10-Day Weather Forecast

Advertisements
Track Severe Weather on mobile